Preston Hill, Pennsylvania
Current Conditions -  °F | °C
As of 7:15 AM on Friday 19 Dec 2014 (Local Time) from KHZL Reporting Station
Overcast Overcast  
Wind Chill: -6°   Ceiling: 800
Heat Index: -1°   Visibility: 10mi
Dew Point: -2°   Wind: 10mph
Humidity: 93%   Direction: 290°WNW
Pressure: 30.01"   Gusts: NA
Location:  40.7904°N, 76.2898°W
Report Text: KHZL 191215Z AUTO 29009KT 10SM BKN008 OVC013 M01/M02 A3001 RMK AO2
Loading
Personal Weather Stations






























Interactive Weather Map New forecast layout! Learn more

10-Day Weather Forecast

Advertisements
Track Severe Weather on mobile